Time;durP1;ratioP1;P1;durP2;ratioP2;P2;SDS_P1;SDS_P2;PMS_P1;PMS_P2;Temp;Humidity;BMP_temperature;BMP_pressure;BME280_temperature;BME280_humidity;BME280_pressure;Samples;Min_cycle;Max_cycle;Signal;HPM_P1;HPM_P2
2021/08/09 00:00:16;;;;;;;5.75;2.08;;;;;;;16.13;76.29;100427.25;5109246;28;20514;-74
2021/08/09 00:03:02;;;;;;;6.50;1.80;;;;;;;16.11;76.76;100425.94;5101429;27;20058;-74
2021/08/09 00:05:47;;;;;;;6.90;2.10;;;;;;;16.09;77.55;100423.44;5107265;27;20068;-74
2021/08/09 00:08:33;;;;;;;9.50;2.17;;;;;;;16.09;76.50;100426.25;5104248;27;20040;-74
2021/08/09 00:11:19;;;;;;;8.15;2.33;;;;;;;16.06;77.68;100424.94;5094522;28;20088;-74
2021/08/09 00:14:05;;;;;;;7.82;2.05;;;;;;;16.04;77.69;100426.44;5086853;27;20027;-74
2021/08/09 00:16:50;;;;;;;5.30;2.13;;;;;;;16.03;77.70;100430.41;5101675;27;20027;-74
2021/08/09 00:19:37;;;;;;;6.38;2.00;;;;;;;15.98;77.91;100424.97;5093286;27;20027;-74
2021/08/09 00:22:22;;;;;;;6.28;1.95;;;;;;;15.98;78.65;100434.19;5094427;27;20042;-74
2021/08/09 00:25:09;;;;;;;8.35;2.08;;;;;;;16.00;77.94;100431.06;5106579;27;20121;-74
2021/08/09 00:27:54;;;;;;;9.73;2.35;;;;;;;15.97;77.98;100426.13;5107089;27;20487;-74
2021/08/09 00:30:40;;;;;;;7.45;2.38;;;;;;;15.95;78.16;100420.84;5106080;27;20039;-74
2021/08/09 00:33:26;;;;;;;7.45;2.25;;;;;;;15.92;77.72;100423.50;5115351;27;20031;-74
2021/08/09 00:36:12;;;;;;;10.32;2.50;;;;;;;15.93;78.16;100425.13;5110383;27;20071;-74
2021/08/09 00:38:58;;;;;;;10.20;2.20;;;;;;;15.93;78.80;100414.75;5106226;27;20038;-74
2021/08/09 00:41:44;;;;;;;12.10;2.67;;;;;;;15.90;78.83;100425.81;5088715;27;20423;-74
2021/08/09 00:44:29;;;;;;;5.60;1.95;;;;;;;15.90;78.07;100420.19;5091783;28;20035;-74
2021/08/09 00:47:15;;;;;;;7.78;2.38;;;;;;;15.87;80.46;100416.09;5086895;28;20042;-74
2021/08/09 00:50:01;;;;;;;8.77;2.20;;;;;;;15.89;79.10;100415.75;5106048;27;20056;-74
2021/08/09 00:52:47;;;;;;;10.70;2.47;;;;;;;15.89;78.05;100405.38;5117376;27;20062;-74
2021/08/09 00:55:33;;;;;;;10.40;2.40;;;;;;;15.88;79.13;100406.53;5090900;27;20042;-74
2021/08/09 00:58:20;;;;;;;7.60;2.53;;;;;;;15.90;78.57;100403.41;5094923;28;20047;-74
2021/08/09 01:01:06;;;;;;;8.85;2.40;;;;;;;15.85;79.58;100396.81;5086621;27;20035;-74
2021/08/09 01:03:51;;;;;;;8.10;2.22;;;;;;;15.85;79.34;100404.38;5093927;28;20118;-74
2021/08/09 01:06:38;;;;;;;11.13;2.40;;;;;;;15.87;79.63;100402.06;5090662;27;20114;-74
2021/08/09 01:09:48;;;;;;;6.45;2.38;;;;;;;15.85;78.60;100408.03;5092392;28;20064;-74
2021/08/09 01:12:59;;;;;;;7.07;2.20;;;;;;;15.85;80.17;100399.63;5099796;28;20113;-75
2021/08/09 01:15:47;;;;;;;8.18;2.42;;;;;;;15.87;79.82;100402.06;5096885;28;20039;-74
2021/08/09 01:18:33;;;;;;;11.35;2.30;;;;;;;15.86;79.25;100404.06;5086309;27;20023;-74
2021/08/09 01:21:19;;;;;;;7.43;1.95;;;;;;;15.84;79.43;100411.97;5077795;28;20473;-74
2021/08/09 01:24:29;;;;;;;11.13;2.50;;;;;;;15.85;79.49;100407.19;5093901;28;20086;-74
2021/08/09 01:27:29;;;;;;;11.32;2.90;;;;;;;15.80;80.20;100404.59;5098361;27;20051;-74
2021/08/09 01:30:15;;;;;;;7.85;2.28;;;;;;;15.83;80.34;100406.72;5122052;27;20081;-74
2021/08/09 01:33:01;;;;;;;8.40;1.95;;;;;;;15.81;80.67;100414.63;5086530;27;20463;-74
2021/08/09 01:35:46;;;;;;;10.13;2.40;;;;;;;15.83;80.65;100427.13;5106329;27;20030;-74
2021/08/09 01:38:32;;;;;;;6.95;2.53;;;;;;;15.81;80.25;100425.81;5124093;27;20035;-74
2021/08/09 01:41:18;;;;;;;7.65;2.30;;;;;;;15.82;80.05;100407.84;5106580;27;20052;-74
2021/08/09 01:44:04;;;;;;;10.77;2.70;;;;;;;15.79;80.11;100414.94;5107689;27;20043;-74
2021/08/09 01:46:50;;;;;;;8.43;2.45;;;;;;;15.82;80.39;100402.25;5108289;27;20038;-74
2021/08/09 01:49:36;;;;;;;10.85;2.78;;;;;;;15.81;81.24;100423.84;5097214;27;20043;-74
2021/08/09 01:52:22;;;;;;;6.68;2.35;;;;;;;15.78;80.00;100418.91;5104490;27;20050;-74
2021/08/09 01:55:08;;;;;;;8.70;2.38;;;;;;;15.78;80.63;100415.28;5087550;28;20442;-74
2021/08/09 01:57:54;;;;;;;6.85;2.25;;;;;;;15.79;80.41;100420.53;5079641;28;20036;-74
2021/08/09 02:00:40;;;;;;;10.00;2.97;;;;;;;15.80;81.10;100418.59;5068731;28;20066;-74
2021/08/09 02:03:25;;;;;;;13.70;2.85;;;;;;;15.79;80.87;100412.13;5082707;28;20042;-74
2021/08/09 02:06:11;;;;;;;8.32;2.50;;;;;;;15.81;80.26;100409.00;5069557;28;20036;-74
2021/08/09 02:08:57;;;;;;;7.75;2.40;;;;;;;15.80;81.50;100416.59;5083375;28;20036;-74
2021/08/09 02:11:51;;;;;;;9.48;2.55;;;;;;;15.81;80.49;100407.03;5069408;28;20032;-74
2021/08/09 02:14:41;;;;;;;7.90;2.45;;;;;;;15.83;81.39;100404.72;5100122;28;20044;-74
2021/08/09 02:17:40;;;;;;;9.48;2.38;;;;;;;15.84;80.17;100411.16;5051990;28;20388;-74
2021/08/09 02:20:33;;;;;;;7.07;2.25;;;;;;;15.79;81.08;100414.94;5062290;28;20024;-74
2021/08/09 02:23:20;;;;;;;7.13;2.38;;;;;;;15.81;80.63;100407.03;5081539;28;20036;-74
2021/08/09 02:26:06;;;;;;;6.95;2.50;;;;;;;15.78;81.04;100410.50;5055498;28;20120;-74
2021/08/09 02:28:52;;;;;;;8.57;2.70;;;;;;;15.75;81.58;100399.97;5069882;28;20512;-74
2021/08/09 02:31:38;;;;;;;7.18;2.13;;;;;;;15.78;80.71;100395.69;5064738;28;20063;-74
2021/08/09 02:34:26;;;;;;;9.02;2.47;;;;;;;15.77;80.86;100396.84;5059866;28;20032;-74
2021/08/09 02:37:12;;;;;;;8.10;2.75;;;;;;;15.76;81.81;100398.81;5064898;28;20456;-74
2021/08/09 02:39:58;;;;;;;8.43;2.65;;;;;;;15.74;81.25;100387.13;5071221;28;20442;-75
2021/08/09 02:42:43;;;;;;;9.80;2.55;;;;;;;15.75;81.57;100385.97;5065759;28;20528;-75
2021/08/09 02:45:29;;;;;;;7.15;2.83;;;;;;;15.72;82.41;100381.03;5067436;28;20551;-74
2021/08/09 02:48:16;;;;;;;10.05;2.80;;;;;;;15.68;82.87;100385.63;5079650;28;20099;-75
2021/08/09 02:51:02;;;;;;;11.20;3.00;;;;;;;15.68;82.05;100408.03;5070079;28;20044;-75
2021/08/09 02:53:48;;;;;;;7.82;2.85;;;;;;;15.67;81.92;100395.16;5059985;28;20116;-74
2021/08/09 02:56:33;;;;;;;8.18;2.55;;;;;;;15.67;82.57;100388.75;5082916;28;20040;-75
2021/08/09 02:59:19;;;;;;;12.27;2.80;;;;;;;15.65;83.25;100389.06;5069480;28;20028;-74
2021/08/09 03:02:05;;;;;;;7.20;2.95;;;;;;;15.63;82.53;100381.00;5061232;28;20096;-74
2021/08/09 03:04:51;;;;;;;11.45;2.67;;;;;;;15.62;82.71;100387.75;5082717;28;20028;-74
2021/08/09 03:07:37;;;;;;;7.22;3.05;;;;;;;15.61;82.09;100371.31;5076179;27;20032;-74
2021/08/09 03:10:23;;;;;;;9.05;2.90;;;;;;;15.60;82.37;100372.44;5077875;27;20049;-75
2021/08/09 03:13:10;;;;;;;8.85;2.67;;;;;;;15.59;82.75;100365.22;5076511;28;20024;-74
2021/08/09 03:15:55;;;;;;;8.63;2.55;;;;;;;15.58;81.84;100371.97;5078754;27;20042;-74
2021/08/09 03:18:41;;;;;;;7.03;2.88;;;;;;;15.54;83.40;100371.78;5074113;28;20032;-75
2021/08/09 03:21:27;;;;;;;8.38;2.80;;;;;;;15.55;82.90;100375.44;5071248;28;20044;-74
2021/08/09 03:24:13;;;;;;;11.05;2.92;;;;;;;15.53;83.09;100394.53;5088488;28;20031;-74
2021/08/09 03:26:59;;;;;;;7.93;2.50;;;;;;;15.51;82.82;100403.25;5086133;28;20064;-74
2021/08/09 03:29:45;;;;;;;9.93;2.80;;;;;;;15.49;84.05;100410.31;5075298;28;20435;-75
2021/08/09 03:32:31;;;;;;;7.03;2.47;;;;;;;15.49;82.69;100407.50;5085406;28;20084;-74
2021/08/09 03:35:16;;;;;;;8.38;2.70;;;;;;;15.50;82.70;100410.00;5076169;28;20036;-74
2021/08/09 03:38:02;;;;;;;10.65;2.88;;;;;;;15.47;83.12;100407.88;5083859;28;20044;-74
2021/08/09 03:40:48;;;;;;;8.27;2.72;;;;;;;15.48;82.31;100411.47;5074957;28;20084;-75
2021/08/09 03:43:34;;;;;;;8.00;2.88;;;;;;;15.47;82.45;100412.66;5072018;28;20383;-74
2021/08/09 03:46:19;;;;;;;4.95;2.50;;;;;;;15.47;83.02;100409.84;5069461;28;20505;-74
2021/08/09 03:49:09;;;;;;;7.03;2.90;;;;;;;15.48;83.30;100408.69;5087494;28;20464;-74
2021/08/09 03:51:54;;;;;;;9.25;2.95;;;;;;;15.46;83.37;100409.03;5070573;28;20036;-74
2021/08/09 03:54:40;;;;;;;8.15;2.75;;;;;;;15.45;83.23;100415.75;5073692;28;20036;-74
2021/08/09 03:57:27;;;;;;;7.75;2.60;;;;;;;15.42;83.04;100410.81;5092548;28;20040;-74
2021/08/09 04:00:13;;;;;;;6.07;2.60;;;;;;;15.41;83.85;100415.59;5100415;28;20039;-74
2021/08/09 04:02:59;;;;;;;7.00;2.40;;;;;;;15.42;83.44;100416.41;5066774;28;20032;-75
2021/08/09 04:05:45;;;;;;;7.85;2.53;;;;;;;15.41;82.43;100417.59;5067189;28;20085;-75
2021/08/09 04:08:31;;;;;;;7.10;2.80;;;;;;;15.44;83.16;100413.31;5081927;28;20047;-74
2021/08/09 04:11:17;;;;;;;8.18;2.63;;;;;;;15.40;82.73;100413.94;5063155;27;20113;-74
2021/08/09 04:14:03;;;;;;;7.68;2.58;;;;;;;15.41;83.43;100418.41;5074595;28;20065;-74
2021/08/09 04:16:49;;;;;;;6.88;2.78;;;;;;;15.42;83.12;100422.84;5084482;28;20023;-74
2021/08/09 04:19:35;;;;;;;8.25;2.40;;;;;;;15.39;83.68;100411.47;5078435;28;20115;-74
2021/08/09 04:22:21;;;;;;;8.23;2.58;;;;;;;15.37;82.42;100414.59;5083425;28;20040;-74
2021/08/09 04:25:07;;;;;;;9.85;2.78;;;;;;;15.39;82.98;100419.88;5087886;28;20035;-74
2021/08/09 04:27:53;;;;;;;10.25;3.25;;;;;;;15.38;83.49;100421.84;5087766;28;20040;-74
2021/08/09 04:30:38;;;;;;;10.88;3.28;;;;;;;15.36;84.57;100414.94;5082235;28;20040;-74
2021/08/09 04:33:24;;;;;;;9.00;2.88;;;;;;;15.36;83.47;100421.34;5083812;28;20104;-74
2021/08/09 04:36:10;;;;;;;8.48;2.95;;;;;;;15.33;83.92;100413.63;5076400;28;20084;-75
2021/08/09 04:38:56;;;;;;;6.18;2.50;;;;;;;15.32;83.42;100423.19;5071784;28;20502;-74
2021/08/09 04:41:42;;;;;;;10.30;2.72;;;;;;;15.33;83.81;100418.41;5066692;28;20035;-74
2021/08/09 04:44:28;;;;;;;8.57;3.10;;;;;;;15.26;83.40;100424.47;5067201;28;20027;-74
2021/08/09 04:47:13;;;;;;;9.77;3.10;;;;;;;15.28;84.22;100429.75;5075114;28;20032;-74
2021/08/09 04:49:59;;;;;;;7.10;1.92;;;;;;;15.27;82.44;100426.13;5060799;28;20503;-74
2021/08/09 04:52:45;;;;;;;6.93;3.15;;;;;;;15.27;83.08;100425.31;5076616;28;20039;-74
2021/08/09 04:55:31;;;;;;;7.30;2.42;;;;;;;15.25;83.63;100428.44;5054077;28;20078;-74
2021/08/09 04:58:17;;;;;;;6.22;2.17;;;;;;;15.25;82.68;100434.03;5054022;28;20036;-75
2021/08/09 05:01:02;;;;;;;6.22;2.42;;;;;;;15.24;83.16;100431.53;5067799;28;20039;-74
2021/08/09 05:03:48;;;;;;;8.68;2.13;;;;;;;15.24;83.22;100431.53;5050496;28;20079;-74
2021/08/09 05:06:34;;;;;;;5.05;2.65;;;;;;;15.20;82.84;100431.38;5066484;28;20031;-74
2021/08/09 05:09:20;;;;;;;4.57;2.25;;;;;;;15.19;83.01;100424.97;5065867;28;20032;-74
2021/08/09 05:12:06;;;;;;;7.60;2.20;;;;;;;15.18;82.63;100431.72;5053268;28;20090;-74
2021/08/09 05:14:53;;;;;;;5.90;2.47;;;;;;;15.19;83.07;100433.34;5053705;28;20040;-74
2021/08/09 05:17:39;;;;;;;4.80;2.20;;;;;;;15.18;82.76;100431.72;5047784;28;20052;-74
2021/08/09 05:20:24;;;;;;;6.18;2.05;;;;;;;15.15;83.55;100437.13;5073370;28;20028;-74
2021/08/09 05:23:10;;;;;;;8.32;2.33;;;;;;;15.12;82.99;100437.78;5064476;28;20096;-74
2021/08/09 05:25:56;;;;;;;6.32;2.05;;;;;;;15.12;83.69;100435.78;5074128;28;20557;-74
2021/08/09 05:28:42;;;;;;;6.72;2.25;;;;;;;15.14;83.74;100438.28;5059152;28;20088;-74
2021/08/09 05:31:28;;;;;;;6.53;2.17;;;;;;;15.10;84.42;100440.06;5065416;28;20561;-74
2021/08/09 05:34:13;;;;;;;5.13;2.00;;;;;;;15.12;83.79;100438.59;5055419;28;20454;-74
2021/08/09 05:36:59;;;;;;;4.05;2.00;;;;;;;15.12;83.84;100440.56;5080792;28;20103;-74
2021/08/09 05:39:45;;;;;;;4.68;2.20;;;;;;;15.14;83.34;100446.69;5075148;28;20028;-74
2021/08/09 05:42:31;;;;;;;5.78;1.98;;;;;;;15.14;84.22;100443.88;5050946;28;20028;-75
2021/08/09 05:45:17;;;;;;;5.60;2.20;;;;;;;15.12;84.92;100446.97;5067297;28;20090;-74
2021/08/09 05:48:03;;;;;;;6.03;1.92;;;;;;;15.14;84.94;100450.28;5071281;28;20067;-74
2021/08/09 05:50:49;;;;;;;4.65;1.92;;;;;;;15.14;85.09;100452.28;5079103;28;20047;-74
2021/08/09 05:53:35;;;;;;;6.22;1.92;;;;;;;15.15;84.88;100449.13;5062656;28;20063;-74
2021/08/09 05:56:20;;;;;;;4.60;2.03;;;;;;;15.15;84.97;100453.91;5050951;28;20449;-74
2021/08/09 05:59:06;;;;;;;4.47;2.03;;;;;;;15.16;85.90;100455.56;5073137;28;20024;-74
2021/08/09 06:01:52;;;;;;;7.38;2.17;;;;;;;15.19;85.46;100454.91;5074625;28;20058;-74
2021/08/09 06:04:38;;;;;;;5.75;1.73;;;;;;;15.18;86.27;100462.50;5080011;28;20449;-74
2021/08/09 06:07:24;;;;;;;5.25;1.90;;;;;;;15.24;86.07;100465.97;5100524;28;20472;-74
2021/08/09 06:10:10;;;;;;;4.82;2.00;;;;;;;15.26;85.31;100465.59;5071335;28;20581;-74
2021/08/09 06:12:55;;;;;;;7.13;2.10;;;;;;;15.31;86.22;100468.25;5088426;28;20035;-75
2021/08/09 06:15:41;;;;;;;3.85;1.80;;;;;;;15.34;85.51;100464.81;5084997;28;20033;-74
2021/08/09 06:18:27;;;;;;;5.18;2.03;;;;;;;15.38;86.56;100471.41;5076842;28;20064;-74
2021/08/09 06:21:13;;;;;;;10.82;2.53;;;;;;;15.42;87.55;100476.00;5091794;28;20071;-74
2021/08/09 06:23:58;;;;;;;6.53;2.50;;;;;;;15.46;87.48;100472.53;5090964;28;20031;-74
2021/08/09 06:26:44;;;;;;;4.93;2.05;;;;;;;15.50;87.39;100476.34;5073844;28;20031;-74
2021/08/09 06:29:30;;;;;;;6.07;2.50;;;;;;;15.53;88.53;100470.09;5069682;28;20024;-74
2021/08/09 06:32:16;;;;;;;5.22;2.22;;;;;;;15.57;87.18;100473.88;5074785;28;20031;-74
2021/08/09 06:35:03;;;;;;;5.18;2.05;;;;;;;15.60;86.91;100481.59;5077986;28;20036;-74
2021/08/09 06:37:49;;;;;;;6.55;2.42;;;;;;;15.64;86.54;100471.41;5089172;28;20043;-74
2021/08/09 06:40:35;;;;;;;5.18;2.15;;;;;;;15.70;86.19;100472.91;5085444;28;20100;-74
2021/08/09 06:43:20;;;;;;;6.45;2.58;;;;;;;15.74;87.66;100479.53;5067443;28;20039;-74
2021/08/09 06:46:06;;;;;;;5.22;2.50;;;;;;;15.77;87.43;100484.47;5089033;27;20069;-74
2021/08/09 06:48:52;;;;;;;5.28;3.35;;;;;;;15.80;86.28;100478.19;5087939;28;20047;-74
2021/08/09 06:51:38;;;;;;;7.57;2.60;;;;;;;15.83;87.03;100482.31;5067057;28;20391;-74
2021/08/09 06:54:25;;;;;;;6.78;2.45;;;;;;;15.88;87.24;100479.34;5071641;28;20563;-74
2021/08/09 06:57:12;;;;;;;4.82;2.88;;;;;;;15.91;87.34;100484.28;5064962;28;20043;-74
2021/08/09 06:59:57;;;;;;;4.82;2.20;;;;;;;15.92;85.56;100485.94;5075187;28;20039;-74
2021/08/09 07:02:43;;;;;;;6.93;2.47;;;;;;;15.95;85.97;100490.06;5087671;27;20034;-75
2021/08/09 07:05:29;;;;;;;5.70;2.20;;;;;;;15.96;86.18;100488.88;5093348;28;20110;-74
2021/08/09 07:08:15;;;;;;;5.75;2.40;;;;;;;16.00;85.18;100492.69;5077192;28;20043;-74
2021/08/09 07:11:00;;;;;;;6.50;2.38;;;;;;;16.01;86.96;100485.91;5066293;28;20551;-74
2021/08/09 07:13:46;;;;;;;4.90;2.65;;;;;;;16.03;85.82;100492.84;5069518;28;20052;-74
2021/08/09 07:16:32;;;;;;;7.30;2.63;;;;;;;16.06;86.42;100491.34;5084558;28;20081;-74
2021/08/09 07:19:18;;;;;;;9.77;3.08;;;;;;;16.08;88.03;100489.06;5076287;28;20031;-74
2021/08/09 07:22:04;;;;;;;6.10;2.30;;;;;;;16.09;87.13;100488.69;5075746;28;20040;-74
2021/08/09 07:24:51;;;;;;;5.25;2.60;;;;;;;16.10;87.75;100489.53;5068241;28;20027;-74
2021/08/09 07:27:37;;;;;;;9.40;2.50;;;;;;;16.16;87.76;100487.38;5089749;28;20035;-74
2021/08/09 07:30:23;;;;;;;5.25;2.40;;;;;;;16.21;87.43;100490.81;5057597;28;20030;-75
2021/08/09 07:33:09;;;;;;;6.95;2.53;;;;;;;16.23;88.23;100496.91;5072932;28;20428;-74
2021/08/09 07:35:55;;;;;;;7.00;2.88;;;;;;;16.27;88.97;100495.13;5087602;28;20035;-74
2021/08/09 07:38:41;;;;;;;6.68;2.30;;;;;;;16.33;87.97;100490.16;5084791;28;20103;-74
2021/08/09 07:41:27;;;;;;;6.53;2.47;;;;;;;16.38;87.35;100491.94;5087868;28;20085;-74
2021/08/09 07:44:12;;;;;;;6.28;2.38;;;;;;;16.40;87.37;100495.25;5072843;27;20098;-74
2021/08/09 07:46:58;;;;;;;4.85;2.17;;;;;;;16.43;87.03;100501.00;5082599;28;20059;-75
2021/08/09 07:49:44;;;;;;;4.30;2.38;;;;;;;16.47;86.62;100492.75;5076489;28;20154;-74
2021/08/09 07:52:30;;;;;;;5.45;2.22;;;;;;;16.49;86.57;100496.88;5072594;28;20033;-74
2021/08/09 07:55:15;;;;;;;5.75;2.50;;;;;;;16.56;87.46;100498.34;5068926;28;20048;-74
2021/08/09 07:58:01;;;;;;;4.93;3.00;;;;;;;16.62;88.24;100511.81;5056230;28;20024;-74
2021/08/09 08:00:47;;;;;;;5.60;2.45;;;;;;;16.67;87.20;100502.41;5063741;28;20469;-74
2021/08/09 08:03:33;;;;;;;6.38;2.47;;;;;;;16.73;86.45;100510.31;5070701;28;20115;-74
2021/08/09 08:06:19;;;;;;;5.88;2.42;;;;;;;16.77;87.37;100502.09;5073657;28;20164;-74
2021/08/09 08:09:06;;;;;;;5.97;2.70;;;;;;;16.81;86.94;100497.44;5080918;28;20495;-74
2021/08/09 08:11:52;;;;;;;3.05;2.00;;;;;;;16.86;86.39;100499.25;5047839;28;20032;-74
2021/08/09 08:14:38;;;;;;;4.93;2.17;;;;;;;16.90;86.06;100503.81;5060619;28;20479;-74
2021/08/09 08:17:24;;;;;;;5.32;2.28;;;;;;;16.93;87.63;100503.16;5066450;28;20377;-74
2021/08/09 08:20:10;;;;;;;5.07;1.83;;;;;;;16.97;87.02;100497.72;5070695;28;20047;-75
2021/08/09 08:22:57;;;;;;;5.45;1.98;;;;;;;17.01;86.14;100500.66;5065302;28;20028;-74
2021/08/09 08:25:43;;;;;;;11.13;2.53;;;;;;;17.02;87.24;100505.94;5066572;28;20074;-74
2021/08/09 08:28:29;;;;;;;5.82;2.30;;;;;;;17.05;86.83;100504.41;5054293;28;20028;-74
2021/08/09 08:31:15;;;;;;;5.05;2.35;;;;;;;17.06;86.98;100509.69;5061775;28;20106;-74
2021/08/09 08:34:01;;;;;;;5.97;2.45;;;;;;;17.08;88.32;100512.19;5071578;28;20123;-74
2021/08/09 08:36:46;;;;;;;5.85;2.10;;;;;;;17.09;87.57;100511.00;5078262;28;20036;-74
2021/08/09 08:39:33;;;;;;;7.55;2.00;;;;;;;17.10;87.34;100515.44;5064957;28;20503;-74
2021/08/09 08:42:19;;;;;;;4.55;2.03;;;;;;;17.13;87.40;100518.44;5077620;28;20060;-74
2021/08/09 08:45:06;;;;;;;5.95;2.13;;;;;;;17.14;86.31;100520.06;5055395;28;20060;-74
2021/08/09 08:47:51;;;;;;;4.78;2.33;;;;;;;17.17;88.07;100515.75;5051894;28;20032;-75
2021/08/09 08:50:37;;;;;;;4.78;1.98;;;;;;;17.22;87.33;100526.78;5053786;28;20025;-74
2021/08/09 08:53:25;;;;;;;4.38;2.10;;;;;;;17.24;87.06;100523.63;5080466;28;20028;-74
2021/08/09 08:56:11;;;;;;;7.70;1.83;;;;;;;17.27;87.52;100531.38;5071544;27;20043;-75
2021/08/09 08:58:57;;;;;;;5.43;2.40;;;;;;;17.28;88.30;100528.25;5080143;28;20059;-74
2021/08/09 09:01:47;;;;;;;4.53;2.28;;;;;;;17.33;87.95;100528.06;5072282;28;20046;-75
2021/08/09 09:04:33;;;;;;;4.90;2.10;;;;;;;17.44;90.20;100528.50;5073207;28;20036;-74
2021/08/09 09:07:19;;;;;;;3.97;2.13;;;;;;;17.53;86.32;100537.66;5099460;28;20039;-74
2021/08/09 09:10:24;;;;;;;4.90;2.10;;;;;;;17.68;86.90;100536.22;5066347;28;20043;-74
2021/08/09 09:13:14;;;;;;;4.93;2.33;;;;;;;17.84;87.16;100537.31;5087124;28;20502;-74
2021/08/09 09:16:04;;;;;;;5.20;2.13;;;;;;;17.98;88.10;100533.41;5086183;28;20028;-74
2021/08/09 09:18:52;;;;;;;3.58;1.60;;;;;;;18.12;86.37;100538.72;5115768;28;20050;-75
2021/08/09 09:21:41;;;;;;;3.60;2.10;;;;;;;18.28;85.10;100543.38;5102402;27;20035;-74
2021/08/09 09:24:27;;;;;;;4.32;1.92;;;;;;;18.49;83.59;100536.88;5098795;27;20035;-74
2021/08/09 09:27:13;;;;;;;4.90;1.45;;;;;;;18.70;85.89;100542.44;5079404;28;20039;-74
2021/08/09 09:30:00;;;;;;;3.25;1.40;;;;;;;18.91;86.66;100540.38;5100663;27;20031;-74
2021/08/09 09:33:02;;;;;;;4.30;1.45;;;;;;;19.12;83.77;100548.75;5112669;28;20112;-74
2021/08/09 09:35:51;;;;;;;3.83;1.67;;;;;;;19.30;82.72;100543.69;5096711;27;20042;-74
2021/08/09 09:38:43;;;;;;;3.22;1.60;;;;;;;19.49;82.00;100553.53;5090825;27;20384;-74
2021/08/09 09:41:29;;;;;;;4.67;1.70;;;;;;;19.64;82.70;100552.84;5104684;27;20035;-74
2021/08/09 09:44:26;;;;;;;3.45;1.50;;;;;;;19.82;81.98;100545.78;5080359;28;20818;-74
2021/08/09 09:47:28;;;;;;;2.15;1.25;;;;;;;19.99;81.31;100555.94;5100225;28;20023;-74
2021/08/09 09:50:26;;;;;;;2.33;1.30;;;;;;;20.19;80.03;100548.47;5100809;27;20075;-74
2021/08/09 09:53:19;;;;;;;2.97;1.40;;;;;;;20.42;78.56;100545.94;5092144;27;20109;-74
2021/08/09 09:56:05;;;;;;;4.57;1.80;;;;;;;20.70;81.50;100556.41;5086025;27;20039;-74
2021/08/09 09:58:51;;;;;;;4.40;1.50;;;;;;;20.96;79.36;100555.84;5083754;27;20119;-74
2021/08/09 10:01:37;;;;;;;2.50;1.20;;;;;;;21.19;78.73;100562.50;5094613;27;20031;-74
2021/08/09 10:04:25;;;;;;;4.22;1.58;;;;;;;21.43;80.31;100549.41;5110255;27;20042;-74
2021/08/09 10:07:11;;;;;;;3.20;1.23;;;;;;;21.62;77.61;100552.28;5110164;27;20042;-74
2021/08/09 10:09:56;;;;;;;3.83;1.25;;;;;;;21.83;76.27;100553.94;5096523;27;20445;-75
2021/08/09 10:12:42;;;;;;;4.50;1.65;;;;;;;22.02;75.90;100551.16;5109491;27;20031;-74
2021/08/09 10:15:28;;;;;;;4.38;1.30;;;;;;;22.23;74.87;100553.66;5095343;27;20039;-74
2021/08/09 10:18:14;;;;;;;2.38;1.00;;;;;;;22.41;75.42;100559.66;5096013;27;20042;-74
2021/08/09 10:21:01;;;;;;;1.75;1.08;;;;;;;22.57;73.90;100570.09;5095225;27;20112;-74
2021/08/09 10:23:48;;;;;;;2.20;1.33;;;;;;;22.69;72.92;100564.25;5107746;27;20031;-74
2021/08/09 10:26:33;;;;;;;2.67;1.42;;;;;;;22.77;73.77;100568.84;5089085;27;20039;-74
2021/08/09 10:29:19;;;;;;;2.20;1.20;;;;;;;22.88;72.67;100561.38;5138343;27;20403;-74
2021/08/09 10:32:21;;;;;;;2.33;1.02;;;;;;;22.95;72.81;100561.53;5109265;27;20027;-74
2021/08/09 10:35:43;;;;;;;3.92;1.08;;;;;;;23.05;72.14;100553.59;5101651;28;20028;-74
2021/08/09 10:38:36;;;;;;;3.28;1.10;;;;;;;23.13;71.64;100561.84;5107692;27;20627;-74
2021/08/09 10:41:28;;;;;;;5.17;1.23;;;;;;;23.25;72.79;100563.66;5098435;27;20479;-74
2021/08/09 10:44:14;;;;;;;2.90;1.27;;;;;;;23.38;70.97;100567.94;5090960;27;20240;-74
2021/08/09 10:47:00;;;;;;;2.47;1.25;;;;;;;23.49;70.57;100564.47;5122497;27;20031;-74
2021/08/09 10:49:46;;;;;;;4.30;1.10;;;;;;;23.54;70.71;100564.13;5105594;27;20046;-74
2021/08/09 10:52:33;;;;;;;4.53;1.10;;;;;;;23.52;69.97;100563.69;5095329;27;20165;-74
2021/08/09 10:55:31;;;;;;;2.95;1.08;;;;;;;23.56;69.80;100565.38;5091064;28;20109;-74
2021/08/09 10:58:45;;;;;;;4.07;1.25;;;;;;;23.58;69.40;100567.84;5101066;28;20403;-74
2021/08/09 11:01:53;;;;;;;2.33;1.13;;;;;;;23.53;69.27;100562.50;5102867;28;20032;-74
2021/08/09 11:04:39;;;;;;;2.55;1.27;;;;;;;23.62;68.91;100565.88;5084219;28;20446;-74
2021/08/09 11:07:25;;;;;;;2.72;1.42;;;;;;;23.62;69.29;100565.88;5094178;27;20482;-74
2021/08/09 11:10:11;;;;;;;2.95;1.10;;;;;;;23.68;69.82;100558.69;5086199;28;20040;-74
2021/08/09 11:12:58;;;;;;;3.42;1.25;;;;;;;23.76;70.63;100566.09;5103184;28;20059;-74
2021/08/09 11:15:54;;;;;;;3.63;1.40;;;;;;;23.86;69.48;100571.13;5083826;28;20040;-74
2021/08/09 11:18:40;;;;;;;2.90;1.45;;;;;;;23.93;68.91;100566.75;5094664;28;20036;-74
2021/08/09 11:21:26;;;;;;;4.38;1.25;;;;;;;23.99;68.35;100566.03;5085198;27;20028;-74
2021/08/09 11:24:11;;;;;;;4.15;1.38;;;;;;;24.11;68.32;100561.34;5091970;28;20036;-74
2021/08/09 11:27:04;;;;;;;3.42;1.45;;;;;;;24.19;69.18;100561.03;5074999;28;20415;-74
2021/08/09 11:29:57;;;;;;;7.60;1.50;;;;;;;24.37;68.84;100566.09;5101296;28;20032;-74
2021/08/09 11:32:43;;;;;;;3.40;1.10;;;;;;;24.56;67.55;100565.16;5086201;28;20107;-74
2021/08/09 11:35:29;;;;;;;6.20;1.45;;;;;;;24.72;67.65;100560.06;5069077;28;20038;-74
2021/08/09 11:38:14;;;;;;;5.80;1.50;;;;;;;24.82;66.71;100564.22;5080204;28;20483;-74
2021/08/09 11:41:01;;;;;;;3.22;1.30;;;;;;;24.88;66.38;100562.66;5074373;28;20085;-74
2021/08/09 11:43:47;;;;;;;2.45;1.17;;;;;;;24.88;65.25;100568.34;5092652;27;20042;-74
2021/08/09 11:46:43;;;;;;;3.40;1.33;;;;;;;24.92;65.47;100572.03;5084653;28;20028;-74
2021/08/09 11:49:29;;;;;;;3.42;1.23;;;;;;;24.94;65.15;100567.59;5079892;28;20119;-74
2021/08/09 11:52:19;;;;;;;4.25;1.33;;;;;;;24.94;65.65;100566.78;5074742;28;20156;-74
2021/08/09 11:55:06;;;;;;;2.35;1.27;;;;;;;24.94;65.13;100572.47;5066774;28;20055;-74
2021/08/09 11:57:51;;;;;;;4.45;1.30;;;;;;;24.96;66.32;100570.03;5074131;28;20035;-74
2021/08/09 12:00:38;;;;;;;4.75;1.50;;;;;;;24.98;65.80;100571.28;5075329;28;20442;-74
2021/08/09 12:03:27;;;;;;;3.60;1.40;;;;;;;25.10;65.04;100573.03;5074721;28;20032;-74
2021/08/09 12:06:20;;;;;;;3.78;1.52;;;;;;;25.19;63.79;100565.00;5084175;28;20092;-74
2021/08/09 12:09:12;;;;;;;3.55;1.25;;;;;;;25.34;63.91;100563.09;5090638;28;20492;-74
2021/08/09 12:11:59;;;;;;;2.92;1.20;;;;;;;25.48;62.97;100565.22;5085910;28;20031;-74
2021/08/09 12:14:45;;;;;;;2.50;1.20;;;;;;;25.64;63.52;100567.78;5061609;28;20027;-74
2021/08/09 12:17:31;;;;;;;4.07;1.40;;;;;;;25.78;64.14;100559.34;5072510;28;20038;-74
2021/08/09 12:20:17;;;;;;;5.07;1.55;;;;;;;25.85;64.27;100559.44;5078485;28;20032;-74
2021/08/09 12:23:03;;;;;;;4.05;1.17;;;;;;;25.91;64.22;100562.72;5079942;28;20046;-74
2021/08/09 12:25:49;;;;;;;3.00;1.15;;;;;;;25.76;64.77;100567.47;5082260;28;20027;-74
2021/08/09 12:28:35;;;;;;;7.97;2.05;;;;;;;25.64;66.27;100571.44;5067820;28;20471;-74
2021/08/09 12:31:30;;;;;;;5.95;2.08;;;;;;;25.32;66.62;100571.19;5058803;28;20496;-74
2021/08/09 12:34:17;;;;;;;5.32;1.60;;;;;;;25.12;66.71;100564.91;5095239;28;20140;-74
2021/08/09 12:37:09;;;;;;;5.22;1.45;;;;;;;24.96;68.94;100564.34;5072338;28;20028;-74
2021/08/09 12:40:18;;;;;;;2.78;1.73;;;;;;;24.83;71.29;100563.81;5098640;28;20023;-74
2021/08/09 12:43:13;;;;;;;4.40;1.45;;;;;;;24.71;70.76;100566.94;5075391;28;20093;-74
2021/08/09 12:45:58;;;;;;;2.65;1.50;;;;;;;24.67;72.07;100564.06;5066025;28;20508;-74
2021/08/09 12:48:51;;;;;;;3.35;1.20;;;;;;;24.60;72.52;100555.47;5085014;28;20035;-74
2021/08/09 12:51:36;;;;;;;3.03;1.50;;;;;;;24.56;73.51;100562.31;5072779;28;20061;-74
2021/08/09 12:54:22;;;;;;;2.78;1.23;;;;;;;24.49;73.98;100563.88;5071678;28;20032;-74
2021/08/09 12:57:08;;;;;;;4.15;1.40;;;;;;;24.38;73.99;100554.38;5074619;28;20054;-74